KSUE/SUE METAR and TAF weather

Enter ICAO airport designator
Station Type Date Time Source
KSUE METAR 2021/01/27 13:56 UTC NOAA

KSUE 271356Z AUTO 34012KT 10SM OVC020 M09/M13 A3037 RMK AO2 SLP298 T10941133 FZRANO


Station Type Date Time Source
KSUE Decoded METAR 2021/01/27 13:56 UTC NOAA

Sturgeon Bay, WI, United States (KSUE) 44-51N 087-25W
Jan 27, 2021 - 08:56 AM EST / 2021.01.27 1356 UTC
Wind: from the NNW (340 degrees) at 14 MPH (12 KT):0
Visibility: 10 mile(s):0
Sky conditions: overcast
Temperature: 15.1 F (-9.4 C)
Windchill: 0 F (-18 C):1
Dew Point: 8.1 F (-13.3 C)
Relative Humidity: 73%
Pressure (altimeter): 30.37 in. Hg (1028 hPa)
ob: KSUE 271356Z AUTO 34012KT 10SM OVC020 M09/M13 A3037 RMK AO2 SLP298 T10941133 FZRANO
cycle: 14

Station Type Date Time Source
KSUE TAF UTC NOAA

Error!

Example: see airport list